Time;durP1;ratioP1;P1;durP2;ratioP2;P2;SDS_P1;SDS_P2;PMS_P1;PMS_P2;Temp;Humidity;BMP_temperature;BMP_pressure;BME280_temperature;BME280_humidity;BME280_pressure;Samples;Min_cycle;Max_cycle;Signal;HPM_P1;HPM_P2
2023/07/12 00:01:20;;;;;;;9.77;4.93;;;;;;;20.44;58.50;100143.06;5082534;28;20614;-67
2023/07/12 00:03:48;;;;;;;4.32;3.88;;;;;;;20.42;58.75;100145.72;5089882;28;20619;-68
2023/07/12 00:06:18;;;;;;;4.38;3.95;;;;;;;20.40;58.67;100146.72;5087251;28;20197;-68
2023/07/12 00:08:47;;;;;;;5.55;4.18;;;;;;;20.37;59.01;100152.13;5092442;28;20247;-69
2023/07/12 00:11:19;;;;;;;4.40;3.72;;;;;;;20.37;59.14;100157.38;5080522;28;20310;-68
2023/07/12 00:13:47;;;;;;;5.15;4.00;;;;;;;20.34;59.24;100150.50;5095411;28;20601;-68
2023/07/12 00:16:25;;;;;;;6.03;4.22;;;;;;;20.34;59.10;100160.97;5088804;28;20291;-68
2023/07/12 00:18:54;;;;;;;5.10;4.22;;;;;;;20.31;59.13;100162.91;5089083;28;20227;-67
2023/07/12 00:21:24;;;;;;;5.32;4.25;;;;;;;20.29;59.43;100170.84;5090366;28;20252;-68
2023/07/12 00:23:53;;;;;;;4.15;3.75;;;;;;;20.27;58.47;100178.75;5081997;28;20243;-67
2023/07/12 00:26:25;;;;;;;4.72;4.22;;;;;;;20.25;58.68;100177.13;5092284;28;20228;-67
2023/07/12 00:28:54;;;;;;;4.50;4.10;;;;;;;20.23;58.70;100181.59;5089666;28;20671;-68
2023/07/12 00:31:23;;;;;;;5.63;4.75;;;;;;;20.19;58.51;100175.66;5091381;28;20211;-67
2023/07/12 00:33:52;;;;;;;6.13;4.47;;;;;;;20.19;59.03;100185.28;5081351;28;20238;-67
2023/07/12 00:36:23;;;;;;;6.47;4.40;;;;;;;20.15;58.91;100184.59;5088235;28;20570;-67
2023/07/12 00:38:51;;;;;;;6.97;4.50;;;;;;;20.15;59.06;100184.59;5091400;28;20211;-68
2023/07/12 00:41:29;;;;;;;5.90;4.35;;;;;;;20.15;58.90;100192.44;5096596;28;20570;-68
2023/07/12 00:44:05;;;;;;;5.10;4.60;;;;;;;20.17;58.32;100197.59;5077862;28;20213;-67
2023/07/12 00:46:39;;;;;;;7.25;5.10;;;;;;;20.18;58.27;100194.06;5091580;28;20624;-66
2023/07/12 00:49:10;;;;;;;6.20;4.40;;;;;;;20.16;57.81;100181.03;5090607;28;20630;-68
2023/07/12 00:51:47;;;;;;;4.93;4.13;;;;;;;20.16;57.73;100172.34;5076405;28;20682;-67
2023/07/12 00:54:18;;;;;;;5.93;4.60;;;;;;;20.13;57.84;100170.72;5091863;28;20294;-68
2023/07/12 00:56:46;;;;;;;8.23;4.82;;;;;;;20.13;57.57;100160.25;5093026;28;20208;-67
2023/07/12 00:59:23;;;;;;;5.50;5.00;;;;;;;20.15;57.73;100155.81;5091822;28;20224;-68
2023/07/12 01:01:55;;;;;;;5.53;4.15;;;;;;;20.16;57.63;100149.66;5085089;28;20208;-67
2023/07/12 01:04:27;;;;;;;6.85;4.90;;;;;;;20.15;57.55;100153.19;5091583;28;20219;-66
2023/07/12 01:06:56;;;;;;;5.25;4.47;;;;;;;20.18;57.69;100147.81;5089086;28;20249;-68
2023/07/12 01:09:25;;;;;;;5.07;4.57;;;;;;;20.15;57.82;100145.34;5091503;28;20265;-67
2023/07/12 01:11:56;;;;;;;5.15;4.55;;;;;;;20.16;58.12;100133.94;5086536;28;20193;-69
2023/07/12 01:14:24;;;;;;;6.95;4.88;;;;;;;20.16;57.78;100139.19;5092167;28;20712;-68
2023/07/12 01:16:58;;;;;;;7.25;4.80;;;;;;;20.14;57.83;100130.59;5096733;28;20216;-66
2023/07/12 01:19:27;;;;;;;6.50;4.53;;;;;;;20.14;57.47;100130.59;5088035;28;20202;-68
2023/07/12 01:21:57;;;;;;;4.50;4.10;;;;;;;20.16;57.34;100131.34;5083474;28;20576;-67
2023/07/12 01:24:27;;;;;;;4.95;4.07;;;;;;;20.16;57.34;100133.94;5088055;28;20250;-68
2023/07/12 01:26:57;;;;;;;8.77;4.25;;;;;;;20.18;57.70;100142.59;5081148;28;20609;-68
2023/07/12 01:29:29;;;;;;;4.93;4.47;;;;;;;20.18;57.48;100134.75;5091439;28;20616;-67
2023/07/12 01:31:57;;;;;;;7.65;4.45;;;;;;;20.17;56.92;100134.78;5086511;28;20261;-67
2023/07/12 01:34:25;;;;;;;6.03;3.67;;;;;;;20.16;57.20;100133.09;5076914;28;20201;-66
2023/07/12 01:36:53;;;;;;;4.68;4.10;;;;;;;20.15;57.02;100131.44;5088193;28;20257;-67
2023/07/12 01:39:23;;;;;;;5.35;3.70;;;;;;;20.16;56.78;100122.66;5082138;28;20636;-67
2023/07/12 01:41:51;;;;;;;4.38;3.97;;;;;;;20.13;57.08;100123.63;5089294;28;20197;-67
2023/07/12 01:44:19;;;;;;;4.78;4.18;;;;;;;20.14;56.57;100129.72;5088826;28;20249;-67
2023/07/12 01:46:47;;;;;;;4.32;3.92;;;;;;;20.13;56.81;100134.09;5090891;28;20220;-68
2023/07/12 01:49:15;;;;;;;5.13;4.25;;;;;;;20.15;56.52;100124.41;5086500;28;20659;-67
2023/07/12 01:51:43;;;;;;;6.72;4.32;;;;;;;20.13;56.63;100123.63;5090525;28;20621;-69
2023/07/12 01:54:11;;;;;;;4.90;4.10;;;;;;;20.13;56.82;100118.41;5088380;28;20196;-67
2023/07/12 01:56:40;;;;;;;6.85;4.30;;;;;;;20.12;56.92;100121.94;5084709;28;20201;-68
2023/07/12 01:59:08;;;;;;;4.45;3.90;;;;;;;20.10;56.88;100123.78;5090828;28;20208;-68
2023/07/12 02:01:36;;;;;;;4.47;3.60;;;;;;;20.13;56.44;100133.25;5081985;28;20614;-68
2023/07/12 02:04:05;;;;;;;3.80;3.47;;;;;;;20.12;56.10;100124.56;5090494;28;20196;-68
2023/07/12 02:06:33;;;;;;;7.10;3.75;;;;;;;20.12;55.86;100121.94;5085394;28;20213;-68
2023/07/12 02:09:01;;;;;;;4.40;4.00;;;;;;;20.08;56.38;100115.19;5090223;28;20275;-68
2023/07/12 02:11:29;;;;;;;5.10;3.50;;;;;;;20.07;56.26;100110.00;5087398;28;20250;-68
2023/07/12 02:13:58;;;;;;;4.32;3.67;;;;;;;20.11;56.39;100122.88;5089850;28;20200;-69
2023/07/12 02:16:26;;;;;;;4.45;3.65;;;;;;;20.12;56.11;100121.94;5089261;28;20215;-68
2023/07/12 02:18:55;;;;;;;7.40;4.07;;;;;;;20.13;56.43;100107.09;5080000;28;20200;-69
2023/07/12 02:21:23;;;;;;;5.60;4.25;;;;;;;20.13;56.34;100109.72;5080389;28;20637;-68
2023/07/12 02:23:53;;;;;;;7.22;4.40;;;;;;;20.10;56.22;100104.63;5079166;28;20227;-69
2023/07/12 02:26:21;;;;;;;5.03;4.57;;;;;;;20.13;56.41;100107.94;5080384;28;20241;-69
2023/07/12 02:28:49;;;;;;;6.07;4.32;;;;;;;20.13;56.08;100107.94;5086466;28;20224;-68
2023/07/12 02:31:21;;;;;;;5.80;3.90;;;;;;;20.13;56.44;100105.31;5079652;28;20682;-68
2023/07/12 02:33:50;;;;;;;4.93;4.05;;;;;;;20.13;56.28;100097.47;5098878;28;20205;-67
2023/07/12 02:36:18;;;;;;;5.00;4.00;;;;;;;20.15;56.45;100100.03;5085217;28;20280;-68
2023/07/12 02:38:47;;;;;;;5.68;4.32;;;;;;;20.12;56.09;100103.63;5093324;28;20323;-69
2023/07/12 02:41:16;;;;;;;4.25;3.70;;;;;;;20.14;55.93;100104.41;5086021;28;20204;-68
2023/07/12 02:43:44;;;;;;;5.68;4.78;;;;;;;20.13;56.13;100094.84;5092321;28;20296;-70
2023/07/12 02:46:12;;;;;;;4.60;3.85;;;;;;;20.12;55.89;100101.03;5082309;28;20221;-67
2023/07/12 02:48:42;;;;;;;5.55;4.18;;;;;;;20.11;55.84;100094.09;5087713;28;20252;-68
2023/07/12 02:51:10;;;;;;;6.25;4.32;;;;;;;20.12;55.77;100085.31;5090806;28;20209;-68
2023/07/12 02:53:38;;;;;;;4.90;4.40;;;;;;;20.10;55.89;100079.31;5084828;28;20225;-67
2023/07/12 02:56:09;;;;;;;4.85;4.45;;;;;;;20.09;55.77;100075.00;5084387;28;20899;-68
2023/07/12 02:58:37;;;;;;;4.65;4.00;;;;;;;20.09;55.85;100080.25;5087695;28;20282;-67
2023/07/12 03:01:06;;;;;;;7.00;4.25;;;;;;;20.10;55.96;100081.94;5099238;28;20324;-67
2023/07/12 03:03:35;;;;;;;5.25;4.30;;;;;;;20.11;55.89;100088.88;5093602;28;20738;-68
2023/07/12 03:06:06;;;;;;;6.10;4.60;;;;;;;20.13;56.04;100086.16;5087478;28;20698;-70
2023/07/12 03:08:34;;;;;;;5.47;4.50;;;;;;;20.12;55.98;100087.94;5088450;28;20209;-68
2023/07/12 03:11:03;;;;;;;6.03;4.38;;;;;;;20.15;56.25;100086.94;5086113;28;20574;-67
2023/07/12 03:13:32;;;;;;;5.25;4.15;;;;;;;20.16;56.16;100086.84;5087594;28;20289;-67
2023/07/12 03:16:00;;;;;;;4.38;3.97;;;;;;;20.18;56.12;100092.88;5090814;28;20720;-67
2023/07/12 03:18:27;;;;;;;8.45;4.40;;;;;;;20.20;56.18;100092.78;5095680;28;20211;-67
2023/07/12 03:20:59;;;;;;;5.28;4.65;;;;;;;20.21;56.07;100087.50;5090664;28;20596;-67
2023/07/12 03:23:29;;;;;;;6.10;5.18;;;;;;;20.21;56.40;100084.00;5091929;28;20205;-68
2023/07/12 03:25:57;;;;;;;6.10;5.13;;;;;;;20.20;56.10;100077.09;5093727;28;20753;-66
2023/07/12 03:28:26;;;;;;;4.97;4.43;;;;;;;20.20;55.91;100077.09;5090880;28;20667;-67
2023/07/12 03:30:58;;;;;;;5.53;4.38;;;;;;;20.19;56.02;100078.84;5093817;28;20731;-67
2023/07/12 03:33:26;;;;;;;5.20;4.70;;;;;;;20.18;55.99;100074.56;5087687;28;20207;-67
2023/07/12 03:35:54;;;;;;;7.72;5.07;;;;;;;20.21;55.91;100070.91;5092535;28;20223;-67
2023/07/12 03:38:25;;;;;;;5.13;4.57;;;;;;;20.20;56.02;100075.31;5093607;28;20204;-67
2023/07/12 03:40:55;;;;;;;5.10;4.18;;;;;;;20.27;55.91;100078.47;5092883;28;20200;-67
2023/07/12 03:43:23;;;;;;;4.70;4.30;;;;;;;20.28;55.84;100081.00;5089136;28;20197;-69
2023/07/12 03:45:51;;;;;;;7.38;4.45;;;;;;;20.32;55.81;100080.84;5079203;28;20220;-69
2023/07/12 03:48:19;;;;;;;6.82;4.50;;;;;;;20.34;55.73;100079.00;5093766;28;20562;-68
2023/07/12 03:50:48;;;;;;;6.85;4.80;;;;;;;20.31;55.59;100069.53;5089112;28;20299;-68
2023/07/12 03:53:17;;;;;;;5.93;5.20;;;;;;;20.27;55.60;100063.59;5087580;28;20201;-68
2023/07/12 03:55:47;;;;;;;4.82;4.43;;;;;;;20.27;56.04;100065.38;5088795;28;20208;-68
2023/07/12 03:58:20;;;;;;;6.43;5.18;;;;;;;20.27;56.01;100058.38;5092818;28;20219;-69
2023/07/12 04:00:49;;;;;;;5.63;4.93;;;;;;;20.30;55.90;100046.91;5093436;28;20550;-66
2023/07/12 04:03:18;;;;;;;6.55;4.85;;;;;;;20.30;55.72;100040.84;5084100;28;21088;-68
2023/07/12 04:05:52;;;;;;;5.35;4.60;;;;;;;20.28;55.84;100033.91;5085831;28;20212;-67
2023/07/12 04:08:21;;;;;;;7.18;4.95;;;;;;;20.28;55.73;100023.44;5092172;28;20324;-68
2023/07/12 04:10:51;;;;;;;6.10;5.47;;;;;;;20.27;55.58;100021.75;5089380;28;20576;-68
2023/07/12 04:13:22;;;;;;;7.00;4.47;;;;;;;20.30;55.59;100025.13;5093197;28;20541;-67
2023/07/12 04:15:53;;;;;;;7.03;4.82;;;;;;;20.36;55.50;100024.78;5088349;28;20660;-68
2023/07/12 04:18:22;;;;;;;5.93;4.32;;;;;;;20.44;55.32;100028.72;5092854;28;20568;-67
2023/07/12 04:20:50;;;;;;;5.95;4.85;;;;;;;20.52;55.16;100015.25;5089387;28;20211;-67
2023/07/12 04:23:18;;;;;;;6.07;4.78;;;;;;;20.70;54.72;100016.91;5086758;28;20285;-67
2023/07/12 04:25:46;;;;;;;7.15;5.65;;;;;;;20.85;54.14;100011.75;5087261;28;20565;-67
2023/07/12 04:28:14;;;;;;;6.75;5.00;;;;;;;21.00;53.85;100008.28;5088542;28;20576;-67
2023/07/12 04:30:43;;;;;;;7.03;4.70;;;;;;;21.15;53.04;100006.59;5092097;28;20664;-68
2023/07/12 04:33:11;;;;;;;5.03;4.53;;;;;;;21.31;52.70;99994.31;5081423;28;20204;-67
2023/07/12 04:35:40;;;;;;;5.00;4.40;;;;;;;21.46;52.48;99992.63;5091540;28;20207;-66
2023/07/12 04:38:08;;;;;;;5.90;4.38;;;;;;;21.54;51.85;99989.56;5092144;28;20197;-66
2023/07/12 04:40:36;;;;;;;6.40;4.63;;;;;;;21.68;51.78;99998.31;5087497;28;20200;-67
2023/07/12 04:43:04;;;;;;;5.43;4.85;;;;;;;21.80;51.27;99996.75;5087089;28;20287;-68
2023/07/12 04:45:32;;;;;;;5.32;4.72;;;;;;;21.93;50.77;99984.59;5087987;28;20211;-68
2023/07/12 04:48:01;;;;;;;5.53;4.30;;;;;;;22.02;50.90;99985.84;5092765;28;20253;-66
2023/07/12 04:50:29;;;;;;;7.50;5.03;;;;;;;22.13;50.48;99990.44;5088182;28;20196;-66
2023/07/12 04:52:57;;;;;;;5.97;4.47;;;;;;;22.24;50.30;99987.19;5091563;28;20236;-67
2023/07/12 04:55:27;;;;;;;7.72;4.88;;;;;;;22.37;49.95;99988.13;5087014;28;21612;-68
2023/07/12 04:57:55;;;;;;;6.45;5.13;;;;;;;22.46;49.72;99979.69;5087249;28;20200;-67
2023/07/12 05:00:24;;;;;;;6.25;5.63;;;;;;;22.56;49.46;99979.94;5087210;28;20201;-67
2023/07/12 05:02:53;;;;;;;5.20;4.60;;;;;;;22.63;49.19;99984.72;5083307;28;20228;-67
2023/07/12 05:05:23;;;;;;;5.63;5.07;;;;;;;22.75;49.00;99987.53;5095521;28;20197;-67
2023/07/12 05:07:51;;;;;;;5.10;4.30;;;;;;;22.96;49.06;99982.72;5088592;28;20690;-68
2023/07/12 05:10:19;;;;;;;6.85;5.38;;;;;;;23.23;48.32;99985.34;5082376;28;20215;-68
2023/07/12 05:12:47;;;;;;;8.32;4.88;;;;;;;23.56;47.44;99982.28;5091605;28;20242;-67
2023/07/12 05:15:16;;;;;;;6.70;5.20;;;;;;;24.01;46.63;99983.66;5086428;28;20238;-68
2023/07/12 05:17:45;;;;;;;5.97;5.38;;;;;;;24.76;45.06;99985.50;5082506;28;20215;-68
2023/07/12 05:20:14;;;;;;;6.95;5.25;;;;;;;25.79;42.85;99986.75;5086865;28;20205;-66
2023/07/12 05:22:44;;;;;;;8.70;5.40;;;;;;;27.42;39.21;99978.19;5073762;28;20209;-69
2023/07/12 05:25:12;;;;;;;7.07;5.00;;;;;;;29.16;35.47;99974.72;5079782;28;20264;-71
2023/07/12 05:27:40;;;;;;;6.05;5.00;;;;;;;30.95;32.44;99975.66;5090151;28;20236;-68
2023/07/12 05:30:10;;;;;;;6.18;4.85;;;;;;;32.77;29.27;99961.56;5084967;28;20958;-67
2023/07/12 05:32:40;;;;;;;7.50;4.80;;;;;;;34.38;26.60;99971.53;5088265;28;20318;-68
2023/07/12 05:35:09;;;;;;;4.90;4.47;;;;;;;35.64;24.66;99975.78;5084805;28;20218;-67
2023/07/12 05:37:37;;;;;;;7.13;4.50;;;;;;;36.83;23.48;99977.47;5088191;28;20253;-66
2023/07/12 05:40:10;;;;;;;7.05;4.38;;;;;;;37.82;21.45;99958.75;5080319;28;20205;-67
2023/07/12 05:42:40;;;;;;;7.35;4.90;;;;;;;38.61;20.98;99968.28;5085419;28;20582;-67
2023/07/12 05:45:12;;;;;;;6.03;4.68;;;;;;;39.11;20.11;99960.75;5085628;28;20653;-65
2023/07/12 05:47:42;;;;;;;4.97;4.28;;;;;;;39.21;19.70;99958.47;5081789;28;20234;-66
2023/07/12 05:50:13;;;;;;;5.65;4.72;;;;;;;39.38;19.96;99954.34;5090620;28;20222;-65
2023/07/12 05:52:42;;;;;;;5.05;4.47;;;;;;;39.60;19.90;99952.25;5087734;28;20226;-66
2023/07/12 05:55:13;;;;;;;7.50;4.22;;;;;;;39.74;19.26;99939.63;5078973;28;20200;-63
2023/07/12 05:57:41;;;;;;;4.72;4.18;;;;;;;39.58;19.75;99942.72;5081645;28;20539;-64
2023/07/12 06:00:10;;;;;;;7.43;4.10;;;;;;;39.59;19.60;99937.13;5081096;28;20207;-64
2023/07/12 06:02:42;;;;;;;6.95;4.60;;;;;;;39.71;18.96;99945.44;5100791;28;20196;-70
2023/07/12 06:05:10;;;;;;;6.53;4.55;;;;;;;39.77;18.90;99939.22;5090157;28;20319;-64
2023/07/12 06:07:38;;;;;;;11.68;5.30;;;;;;;39.35;19.50;99948.53;5086038;28;20742;-63
2023/07/12 06:10:07;;;;;;;5.55;4.10;;;;;;;38.99;20.45;99954.28;5094204;28;20295;-63
2023/07/12 06:12:37;;;;;;;4.53;4.07;;;;;;;38.69;19.81;99960.00;5084913;28;20303;-65
2023/07/12 06:15:05;;;;;;;4.65;4.22;;;;;;;38.29;20.46;99949.06;5090809;28;20254;-65
2023/07/12 06:17:33;;;;;;;6.82;3.70;;;;;;;38.30;21.05;99944.53;5087933;28;20204;-63
2023/07/12 06:20:02;;;;;;;7.38;4.45;;;;;;;38.52;20.21;99942.59;5090848;28;20249;-65
2023/07/12 06:22:31;;;;;;;6.40;4.03;;;;;;;38.23;20.72;99922.97;5081474;28;20205;-63
2023/07/12 06:24:59;;;;;;;4.43;4.03;;;;;;;37.19;21.42;99928.22;5091672;28;20204;-68
2023/07/12 06:27:27;;;;;;;4.40;4.00;;;;;;;36.31;22.58;99919.44;5088404;28;20232;-72
2023/07/12 06:29:56;;;;;;;7.68;4.32;;;;;;;35.81;23.17;99919.16;5088239;28;20209;-67
2023/07/12 06:32:24;;;;;;;5.95;3.88;;;;;;;36.03;23.25;99924.63;5082887;28;20287;-69
2023/07/12 06:34:52;;;;;;;5.07;4.10;;;;;;;36.55;22.49;99912.09;5088469;28;20240;-66
2023/07/12 06:37:20;;;;;;;6.78;4.07;;;;;;;36.50;22.30;99932.28;5075213;28;20203;-68
2023/07/12 06:39:48;;;;;;;5.38;4.00;;;;;;;36.72;22.56;99930.47;5084641;28;20201;-66
2023/07/12 06:42:16;;;;;;;5.38;4.03;;;;;;;37.15;21.81;99935.84;5089302;28;20296;-67
2023/07/12 06:44:44;;;;;;;6.78;4.50;;;;;;;37.72;20.95;99942.94;5081238;28;20219;-66
2023/07/12 06:47:14;;;;;;;4.28;3.85;;;;;;;38.24;20.77;99938.09;5088249;28;20209;-66
2023/07/12 06:49:45;;;;;;;7.10;3.72;;;;;;;39.06;19.80;99933.56;5085457;28;20216;-63
2023/07/12 06:52:13;;;;;;;4.90;4.10;;;;;;;40.01;19.18;99931.44;5090305;28;20196;-64
2023/07/12 06:54:41;;;;;;;12.43;4.72;;;;;;;40.28;18.96;99933.03;5082120;28;20262;-63
2023/07/12 06:57:09;;;;;;;28.48;5.88;;;;;;;40.13;18.75;99935.16;5086319;28;20236;-63
2023/07/12 06:59:37;;;;;;;8.82;3.95;;;;;;;40.21;19.20;99932.25;5095142;28;20698;-64
2023/07/12 07:02:06;;;;;;;6.28;4.10;;;;;;;40.97;18.03;99933.28;5086015;28;20265;-65
2023/07/12 07:04:36;;;;;;;11.32;4.28;;;;;;;41.34;17.84;99919.91;5083152;28;20618;-65
2023/07/12 07:07:04;;;;;;;6.03;4.53;;;;;;;41.84;17.35;99930.72;5090915;28;20206;-64
2023/07/12 07:09:33;;;;;;;5.15;4.20;;;;;;;42.52;16.90;99921.53;5088425;28;20285;-66
2023/07/12 07:12:01;;;;;;;5.78;3.53;;;;;;;43.82;15.29;99920.66;5085146;28;20208;-63
2023/07/12 07:14:32;;;;;;;5.35;4.03;;;;;;;45.16;14.13;99916.72;5093595;28;20542;-70
2023/07/12 07:17:00;;;;;;;7.70;4.03;;;;;;;45.56;14.27;99915.72;5087699;28;20272;-68
2023/07/12 07:19:28;;;;;;;6.00;4.22;;;;;;;45.53;14.14;99906.97;5086383;28;20196;-63
2023/07/12 07:21:58;;;;;;;7.40;4.03;;;;;;;45.35;13.96;99890.91;5092292;28;20257;-64
2023/07/12 07:24:26;;;;;;;5.90;4.20;;;;;;;44.80;14.21;99888.94;5077961;28;20258;-66
2023/07/12 07:26:54;;;;;;;6.18;3.80;;;;;;;44.11;14.94;99884.38;5086985;28;20277;-67
2023/07/12 07:29:22;;;;;;;10.25;3.75;;;;;;;43.57;14.94;99881.09;5082421;28;20216;-66
2023/07/12 07:31:50;;;;;;;6.53;3.97;;;;;;;42.73;16.05;99887.72;5089435;28;20208;-67
2023/07/12 07:34:18;;;;;;;6.00;4.20;;;;;;;41.90;16.71;99891.91;5083630;28;20203;-68
2023/07/12 07:36:46;;;;;;;6.55;3.88;;;;;;;41.65;16.75;99895.50;5087637;28;20210;-65
2023/07/12 07:39:16;;;;;;;7.10;4.15;;;;;;;41.48;17.30;99894.44;5091401;28;20218;-64
2023/07/12 07:41:44;;;;;;;6.88;4.18;;;;;;;41.82;17.04;99884.06;5075809;28;20581;-68
2023/07/12 07:44:12;;;;;;;8.00;4.00;;;;;;;42.03;16.52;99878.22;5085132;28;20207;-64
2023/07/12 07:46:40;;;;;;;7.40;4.32;;;;;;;41.88;16.95;99880.50;5089660;28;20792;-65
2023/07/12 07:49:08;;;;;;;3.90;3.28;;;;;;;42.30;16.26;99870.56;5092458;28;20258;-69
2023/07/12 07:51:36;;;;;;;8.48;4.45;;;;;;;42.73;15.32;99866.03;5091981;28;20200;-70
2023/07/12 07:54:05;;;;;;;4.55;3.72;;;;;;;42.73;15.46;99868.75;5088312;28;20200;-68
2023/07/12 07:56:34;;;;;;;5.22;3.75;;;;;;;42.44;15.79;99865.81;5089206;28;20226;-69
2023/07/12 07:59:02;;;;;;;5.15;3.63;;;;;;;41.98;15.67;99868.06;5093022;28;20204;-69
2023/07/12 08:01:31;;;;;;;4.15;3.50;;;;;;;40.91;16.53;99863.88;5078979;28;20208;-69
2023/07/12 08:03:59;;;;;;;5.18;3.15;;;;;;;39.40;17.22;99869.72;5086846;28;20208;-70
2023/07/12 08:06:27;;;;;;;4.10;3.22;;;;;;;38.17;18.76;99865.38;5092750;28;20228;-71
2023/07/12 08:08:55;;;;;;;4.63;3.78;;;;;;;37.08;20.49;99858.91;5092509;28;20255;-70
2023/07/12 08:11:23;;;;;;;5.05;3.47;;;;;;;36.03;22.29;99854.91;5092810;28;20292;-70
2023/07/12 08:13:53;;;;;;;6.50;3.63;;;;;;;35.05;23.63;99859.41;5082725;28;20211;-69
2023/07/12 08:16:27;;;;;;;4.00;2.60;;;;;;;34.25;23.86;99859.75;5092675;28;20269;-68
2023/07/12 08:18:57;;;;;;;4.13;3.15;;;;;;;33.52;23.75;99857.34;5090636;28;20208;-70
2023/07/12 08:21:25;;;;;;;4.57;3.55;;;;;;;33.13;24.59;99858.84;5092911;28;20200;-68
2023/07/12 08:23:53;;;;;;;4.63;3.33;;;;;;;32.79;24.39;99852.84;5080621;28;20209;-69
2023/07/12 08:26:21;;;;;;;3.35;2.88;;;;;;;32.31;24.89;99846.38;5074416;28;20681;-70
2023/07/12 08:28:49;;;;;;;4.57;3.60;;;;;;;31.99;25.85;99842.63;5072529;28;20217;-69
2023/07/12 08:31:19;;;;;;;3.97;3.25;;;;;;;31.75;26.05;99846.81;5072253;28;20521;-70
2023/07/12 08:33:49;;;;;;;5.30;3.22;;;;;;;31.66;26.91;99838.94;5074669;28;20216;-69
2023/07/12 08:36:21;;;;;;;4.22;2.70;;;;;;;31.77;25.57;99834.16;5077936;28;20220;-69
2023/07/12 08:38:50;;;;;;;5.85;3.22;;;;;;;31.68;25.09;99828.97;5087348;28;20558;-70
2023/07/12 08:41:20;;;;;;;3.50;3.10;;;;;;;31.56;25.69;99816.91;5086459;28;20283;-70
2023/07/12 08:43:49;;;;;;;3.25;2.90;;;;;;;31.49;25.20;99827.38;5083480;28;20205;-70
2023/07/12 08:46:22;;;;;;;6.38;3.00;;;;;;;31.37;25.08;99820.63;5075052;28;20201;-69
2023/07/12 08:48:54;;;;;;;3.08;2.80;;;;;;;31.39;26.11;99818.66;5082807;28;20693;-69
2023/07/12 08:51:28;;;;;;;5.45;3.03;;;;;;;31.46;26.04;99807.22;5071980;28;20288;-69
2023/07/12 08:53:56;;;;;;;7.18;2.78;;;;;;;31.50;26.23;99813.06;5078246;28;20209;-71
2023/07/12 08:56:26;;;;;;;3.17;2.85;;;;;;;31.37;26.57;99812.63;5078701;28;20283;-72
2023/07/12 08:58:55;;;;;;;4.22;3.00;;;;;;;31.17;26.06;99810.16;5081950;28;20626;-70
2023/07/12 09:01:45;;;;;;;5.93;3.13;;;;;;;31.16;26.25;99808.50;5054482;28;20213;-69
2023/07/12 09:04:23;;;;;;;7.07;3.20;;;;;;;31.29;25.83;99800.91;5073867;28;20205;-69
2023/07/12 09:06:55;;;;;;;5.35;2.83;;;;;;;31.41;26.47;99806.00;5082528;28;20258;-70
2023/07/12 09:09:24;;;;;;;3.13;2.83;;;;;;;31.50;25.83;99805.06;5086730;28;20216;-72
2023/07/12 09:11:52;;;;;;;3.80;3.22;;;;;;;31.36;25.39;99795.81;5082320;28;20205;-70
2023/07/12 09:14:24;;;;;;;15.43;3.60;;;;;;;31.18;25.79;99792.34;5081195;28;20204;-71
2023/07/12 09:16:58;;;;;;;10.52;3.65;;;;;;;31.12;25.76;99780.53;5090935;28;20200;-70
2023/07/12 09:19:31;;;;;;;4.13;2.47;;;;;;;31.06;25.68;99773.16;5086841;28;20211;-70
2023/07/12 09:22:06;;;;;;;35.33;5.45;;;;;;;30.99;25.30;99764.13;5086570;28;20205;-69
2023/07/12 09:24:43;;;;;;;3.72;2.80;;;;;;;30.84;25.69;99757.69;5079394;28;20208;-69
2023/07/12 09:27:16;;;;;;;7.72;2.90;;;;;;;30.69;25.35;99757.38;5081590;28;20310;-70
2023/07/12 09:29:44;;;;;;;3.35;2.65;;;;;;;30.61;24.91;99750.19;5084988;28;20225;-71
2023/07/12 09:32:21;;;;;;;6.30;2.80;;;;;;;30.73;25.03;99756.09;5076090;28;20205;-73
2023/07/12 09:34:50;;;;;;;5.13;2.38;;;;;;;30.89;24.98;99750.06;5073660;28;20582;-70
2023/07/12 09:37:22;;;;;;;2.97;2.72;;;;;;;31.00;24.56;99749.81;5073151;28;20201;-70
2023/07/12 09:39:55;;;;;;;2.45;2.25;;;;;;;30.90;24.52;99738.47;5085668;28;21137;-71
2023/07/12 09:42:24;;;;;;;2.85;2.60;;;;;;;30.77;25.31;99738.84;5087765;28;20201;-70
2023/07/12 09:44:52;;;;;;;4.25;2.47;;;;;;;30.83;25.89;99735.59;5073857;28;20285;-71
2023/07/12 09:47:37;;;;;;;3.78;2.95;;;;;;;30.88;25.87;99727.13;5077638;28;20200;-72
2023/07/12 09:50:15;;;;;;;3.90;3.20;;;;;;;31.07;25.61;99720.75;5074040;28;20299;-72
2023/07/12 09:52:58;;;;;;;7.60;3.17;;;;;;;31.17;25.21;99724.16;5071302;28;20240;-71
2023/07/12 09:55:35;;;;;;;5.78;3.17;;;;;;;31.14;24.74;99714.63;5071102;28;20207;-71
2023/07/12 09:58:12;;;;;;;4.03;2.88;;;;;;;31.43;25.36;99718.81;5071443;28;20211;-71
2023/07/12 10:00:47;;;;;;;3.15;2.80;;;;;;;32.10;24.63;99709.03;5071315;28;20593;-70
2023/07/12 10:03:23;;;;;;;4.45;3.17;;;;;;;32.87;24.04;99708.72;5071470;28;20249;-71
2023/07/12 10:05:57;;;;;;;3.38;3.00;;;;;;;33.77;23.08;99714.63;5084414;28;20659;-70
2023/07/12 10:08:35;;;;;;;2.63;2.42;;;;;;;34.97;21.95;99703.31;5076917;28;20253;-72
2023/07/12 10:11:07;;;;;;;4.85;3.00;;;;;;;36.26;20.00;99701.81;5078815;28;20563;-70
2023/07/12 10:13:41;;;;;;;3.53;3.22;;;;;;;36.44;19.14;99696.00;5085497;28;20754;-71
2023/07/12 10:16:14;;;;;;;3.00;2.72;;;;;;;36.44;19.54;99683.41;5085838;28;20619;-72
2023/07/12 10:18:45;;;;;;;4.65;3.05;;;;;;;36.83;19.69;99689.28;5074896;28;20208;-71
2023/07/12 10:21:18;;;;;;;7.93;3.08;;;;;;;37.53;18.13;99671.28;5084744;28;20200;-72
2023/07/12 10:23:50;;;;;;;4.53;3.35;;;;;;;37.95;17.72;99667.47;5082318;28;20208;-72
2023/07/12 10:26:19;;;;;;;5.15;3.03;;;;;;;38.57;17.77;99663.56;5064158;28;20707;-71
2023/07/12 10:28:56;;;;;;;5.88;3.00;;;;;;;38.97;17.05;99654.59;5083839;28;20915;-69
2023/07/12 10:31:32;;;;;;;3.78;2.92;;;;;;;39.48;17.31;99654.63;5080855;28;20213;-71
2023/07/12 10:34:16;;;;;;;3.20;2.90;;;;;;;40.04;16.48;99653.03;5079589;28;20208;-75
2023/07/12 10:36:46;;;;;;;3.00;2.75;;;;;;;40.36;15.86;99647.59;5078738;28;20208;-70
2023/07/12 10:39:15;;;;;;;3.22;2.45;;;;;;;40.59;15.63;99647.00;5071271;28;20759;-69
2023/07/12 10:41:46;;;;;;;3.13;2.83;;;;;;;39.69;16.04;99631.91;5074885;28;20206;-71
2023/07/12 10:44:20;;;;;;;2.90;2.70;;;;;;;38.51;17.07;99628.56;5082083;28;20223;-71
2023/07/12 10:46:53;;;;;;;4.65;2.70;;;;;;;37.80;17.88;99627.28;5080153;28;20240;-70
2023/07/12 10:49:41;;;;;;;3.53;2.85;;;;;;;37.77;18.01;99630.38;5082995;28;20717;-70
2023/07/12 10:52:27;;;;;;;3.15;2.67;;;;;;;38.17;16.87;99633.13;5087229;28;20660;-71
2023/07/12 10:55:18;;;;;;;4.82;3.47;;;;;;;38.38;17.02;99638.31;5086276;28;20246;-71
2023/07/12 10:57:48;;;;;;;3.90;2.92;;;;;;;38.22;16.94;99630.63;5081606;28;20205;-72
2023/07/12 11:00:26;;;;;;;3.63;2.85;;;;;;;37.93;17.03;99616.56;5077270;28;20650;-72
2023/07/12 11:03:16;;;;;;;5.50;3.22;;;;;;;38.27;16.91;99605.81;5083373;28;20207;-71
2023/07/12 11:05:57;;;;;;;4.85;3.10;;;;;;;38.63;16.44;99600.81;5089170;28;20197;-72
2023/07/12 11:08:40;;;;;;;10.65;2.97;;;;;;;39.06;15.81;99602.13;5085589;28;20200;-70
2023/07/12 11:11:33;;;;;;;3.55;3.08;;;;;;;39.01;15.98;99596.56;5074143;28;20605;-72
2023/07/12 11:14:25;;;;;;;4.70;3.30;;;;;;;39.41;16.30;99589.13;5086923;28;20197;-72
2023/07/12 11:17:13;;;;;;;3.78;2.50;;;;;;;39.48;16.04;99591.78;5073763;28;20204;-70
2023/07/12 11:19:48;;;;;;;6.35;3.45;;;;;;;39.40;16.19;99575.84;5073767;28;20642;-71
2023/07/12 11:22:19;;;;;;;4.63;3.42;;;;;;;39.10;16.27;99585.31;5088130;28;20269;-70
2023/07/12 11:24:59;;;;;;;5.03;3.20;;;;;;;38.75;16.62;99571.34;5082358;28;20214;-71
2023/07/12 11:27:54;;;;;;;3.60;3.30;;;;;;;38.28;16.83;99575.97;5067770;28;20228;-71
2023/07/12 11:30:26;;;;;;;9.32;3.58;;;;;;;38.11;17.07;99574.75;5073447;28;20213;-70
2023/07/12 11:33:02;;;;;;;4.43;3.80;;;;;;;38.13;17.16;99567.31;5081485;28;20209;-70
2023/07/12 11:35:42;;;;;;;5.30;4.07;;;;;;;37.82;17.64;99558.00;5061659;28;20203;-70
2023/07/12 11:38:19;;;;;;;6.13;3.85;;;;;;;37.42;18.12;99554.44;5073599;28;20227;-71
2023/07/12 11:40:51;;;;;;;6.35;3.70;;;;;;;36.99;18.73;99560.88;5073601;28;20205;-73
2023/07/12 11:43:34;;;;;;;7.68;3.85;;;;;;;36.34;18.99;99574.72;5081088;28;20194;-72
2023/07/12 11:46:05;;;;;;;6.88;3.47;;;;;;;35.51;19.58;99580.63;5078447;28;20601;-71